Time;durP1;ratioP1;P1;durP2;ratioP2;P2;SDS_P1;SDS_P2;PMS_P1;PMS_P2;Temp;Humidity;BMP_temperature;BMP_pressure;BME280_temperature;BME280_humidity;BME280_pressure;Samples;Min_cycle;Max_cycle;Signal;HPM_P1;HPM_P2
2022/11/09 00:04:32;;;;;;;0.30;0.30;;;;;;;4.75;98.58;100263.91;10650665;27;20074;-79
2022/11/09 00:09:34;;;;;;;0.30;0.30;;;;;;;4.72;97.91;100265.25;10632881;27;20414;-77
2022/11/09 00:14:37;;;;;;;0.20;0.20;;;;;;;4.72;98.35;100272.56;10651497;27;20086;-73
2022/11/09 00:19:39;;;;;;;0.30;0.30;;;;;;;4.73;97.90;100268.78;10647751;27;20039;-87
2022/11/09 00:24:42;;;;;;;0.22;0.22;;;;;;;4.70;98.81;100272.81;10652223;27;20051;-77
2022/11/09 00:29:44;;;;;;;0.30;0.30;;;;;;;4.64;98.43;100259.41;10654699;27;20043;-77
2022/11/09 00:34:46;;;;;;;0.30;0.30;;;;;;;4.62;98.24;100267.00;10656094;27;20031;-78
2022/11/09 00:39:48;;;;;;;0.30;0.30;;;;;;;4.60;98.73;100280.00;10637889;27;20047;-78
2022/11/09 00:44:51;;;;;;;0.60;0.30;;;;;;;4.63;98.92;100274.06;10633720;27;20760;-77
2022/11/09 00:49:53;;;;;;;0.65;0.50;;;;;;;4.67;98.58;100272.47;10627956;27;20062;-78
2022/11/09 00:54:55;;;;;;;0.73;0.50;;;;;;;4.57;98.54;100266.94;10640256;27;20528;-78
2022/11/09 00:59:58;;;;;;;0.40;0.40;;;;;;;4.48;99.31;100272.78;10599278;27;20035;-77
2022/11/09 01:05:00;;;;;;;3.55;0.50;;;;;;;4.42;98.60;100279.22;10639531;27;20035;-77
2022/11/09 01:10:04;;;;;;;0.32;0.32;;;;;;;4.41;98.85;100279.47;10652906;27;20042;-77
2022/11/09 01:15:07;;;;;;;0.68;0.40;;;;;;;4.39;98.35;100279.72;10650260;27;20050;-77
2022/11/09 01:20:10;;;;;;;0.40;0.40;;;;;;;4.36;98.69;100277.50;10631521;27;20063;-77
2022/11/09 01:25:14;;;;;;;1.75;0.50;;;;;;;4.35;98.80;100291.34;10622518;27;20062;-77
2022/11/09 01:30:17;;;;;;;0.40;0.40;;;;;;;4.36;99.16;100290.25;10651937;27;20042;-77
2022/11/09 01:35:19;;;;;;;0.52;0.45;;;;;;;4.51;98.36;100293.19;10649311;27;20031;-76
2022/11/09 01:40:21;;;;;;;0.47;0.32;;;;;;;4.57;98.61;100292.19;10641259;27;20046;-76
2022/11/09 01:45:25;;;;;;;0.50;0.45;;;;;;;4.53;99.03;100307.38;10639969;27;20066;-77
2022/11/09 01:50:49;;;;;;;0.82;0.50;;;;;;;4.58;98.28;100298.47;10677000;27;20527;-77
2022/11/09 01:55:54;;;;;;;1.00;0.80;;;;;;;4.56;97.85;100306.03;10658881;27;20505;-76
2022/11/09 02:00:57;;;;;;;0.57;0.50;;;;;;;4.56;97.62;100308.75;10600860;27;20425;-76
2022/11/09 02:06:03;;;;;;;1.38;1.20;;;;;;;4.54;97.76;100311.72;10654575;28;20043;-76
2022/11/09 02:11:11;;;;;;;1.58;1.05;;;;;;;4.54;96.87;100309.00;10650776;28;20044;-76
2022/11/09 02:16:14;;;;;;;0.98;0.98;;;;;;;4.58;96.58;100312.88;10630365;28;20118;-76
2022/11/09 02:21:16;;;;;;;1.15;0.85;;;;;;;4.71;96.02;100317.13;10628349;28;20054;-76
2022/11/09 02:26:23;;;;;;;1.20;1.00;;;;;;;4.78;96.32;100307.72;10646971;27;20050;-76
2022/11/09 02:31:33;;;;;;;0.90;0.90;;;;;;;4.84;95.97;100311.31;10616997;28;20069;-77
2022/11/09 02:36:35;;;;;;;1.33;0.90;;;;;;;4.87;95.50;100305.41;10605433;28;20473;-77
2022/11/09 02:41:46;;;;;;;0.60;0.60;;;;;;;4.88;95.40;100304.31;10620719;28;20042;-77
2022/11/09 02:46:48;;;;;;;1.67;0.68;;;;;;;4.91;95.05;100306.53;10634490;28;20051;-77
2022/11/09 02:51:51;;;;;;;1.63;0.95;;;;;;;4.91;94.63;100306.53;10623183;28;20101;-77
2022/11/09 02:56:53;;;;;;;0.82;0.60;;;;;;;4.94;95.52;100300.59;10629155;27;20035;-77
2022/11/09 03:01:56;;;;;;;0.70;0.70;;;;;;;4.93;95.07;100309.81;10613335;28;20054;-76
2022/11/09 03:07:00;;;;;;;1.00;0.63;;;;;;;4.96;94.62;100298.44;10632001;27;20043;-77
2022/11/09 03:12:27;;;;;;;1.38;0.60;;;;;;;5.00;94.78;100299.56;10640376;27;20062;-76
2022/11/09 03:17:27;;;;;;;0.50;0.50;;;;;;;5.01;94.72;100294.94;10642475;27;20547;-77
2022/11/09 03:22:30;;;;;;;0.40;0.40;;;;;;;5.02;94.72;100291.97;10633637;27;20043;-75
2022/11/09 03:27:32;;;;;;;0.80;0.57;;;;;;;5.00;95.46;100291.41;10622721;27;20051;-75
2022/11/09 03:32:35;;;;;;;0.80;0.80;;;;;;;4.98;95.52;100285.41;10649163;27;20043;-76
2022/11/09 03:37:37;;;;;;;0.80;0.70;;;;;;;4.97;94.82;100283.75;10640037;27;20417;-76
2022/11/09 03:42:44;;;;;;;0.70;0.70;;;;;;;4.98;95.62;100282.69;10619200;27;20032;-76
2022/11/09 03:47:47;;;;;;;1.48;1.30;;;;;;;5.00;95.05;100283.25;10649638;27;20054;-77
2022/11/09 03:52:49;;;;;;;1.15;0.95;;;;;;;5.06;95.53;100284.97;10648116;27;20047;-77
2022/11/09 03:57:52;;;;;;;1.05;0.85;;;;;;;5.09;96.02;100281.75;10635180;27;20039;-77
2022/11/09 04:02:55;;;;;;;1.23;0.93;;;;;;;5.08;96.40;100285.53;10614568;28;20056;-77
2022/11/09 04:07:59;;;;;;;1.05;0.80;;;;;;;5.08;96.07;100276.56;10598105;27;20054;-77
2022/11/09 04:13:01;;;;;;;1.15;0.80;;;;;;;5.11;96.79;100265.16;10612161;27;20043;-77
2022/11/09 04:18:03;;;;;;;1.52;0.90;;;;;;;5.17;96.79;100272.31;10605966;28;20046;-80
2022/11/09 04:23:07;;;;;;;0.98;0.90;;;;;;;5.19;97.42;100275.59;10584221;27;20047;-75
2022/11/09 04:28:11;;;;;;;2.33;0.82;;;;;;;5.19;96.98;100274.75;10600305;27;20055;-75
2022/11/09 04:33:13;;;;;;;1.02;0.90;;;;;;;5.27;97.58;100269.72;10621046;27;20046;-75
2022/11/09 04:38:15;;;;;;;1.35;1.25;;;;;;;5.21;97.46;100248.97;10590681;28;20031;-75
2022/11/09 04:43:18;;;;;;;2.17;1.15;;;;;;;5.17;98.06;100255.97;10566043;28;20035;-75
2022/11/09 04:48:20;;;;;;;1.42;1.10;;;;;;;5.12;97.82;100250.50;10612384;28;20063;-75
2022/11/09 04:53:23;;;;;;;4.45;1.35;;;;;;;5.08;98.95;100258.34;10610566;28;20069;-75
2022/11/09 04:58:25;;;;;;;1.67;1.20;;;;;;;5.08;99.10;100244.75;10610004;28;20035;-75
2022/11/09 05:03:28;;;;;;;1.40;1.13;;;;;;;5.09;99.73;100242.84;10651626;27;20038;-75
2022/11/09 05:08:30;;;;;;;2.22;1.30;;;;;;;5.09;99.60;100238.22;10643695;27;20058;-76
2022/11/09 05:13:32;;;;;;;1.38;1.27;;;;;;;5.10;100.00;100231.72;10653365;27;20043;-75
2022/11/09 05:18:35;;;;;;;1.88;1.38;;;;;;;5.14;100.00;100238.28;10649484;27;20035;-75
2022/11/09 05:28:59;;;;;;;3.83;1.70;;;;;;;5.19;100.00;100234.78;10643669;27;20050;-75
2022/11/09 05:34:02;;;;;;;4.30;1.85;;;;;;;5.20;100.00;100235.59;10611200;28;20043;-75
2022/11/09 05:39:04;;;;;;;4.57;2.45;;;;;;;5.22;100.00;100242.47;10627298;27;20410;-76
2022/11/09 05:44:06;;;;;;;3.38;2.33;;;;;;;5.30;100.00;100244.72;10650697;27;20515;-75
2022/11/09 05:49:08;;;;;;;4.28;2.20;;;;;;;5.45;100.00;100247.59;10637162;27;20047;-75
2022/11/09 05:54:11;;;;;;;3.03;2.30;;;;;;;5.62;100.00;100252.94;10672239;27;20508;-76
2022/11/09 05:59:13;;;;;;;5.82;2.90;;;;;;;5.83;100.00;100258.53;10667139;27;20043;-75
2022/11/09 06:04:15;;;;;;;4.05;2.38;;;;;;;5.85;100.00;100257.19;10654251;28;20043;-77
2022/11/09 06:09:17;;;;;;;6.07;3.20;;;;;;;5.79;100.00;100258.25;10651425;28;20051;-76
2022/11/09 06:14:19;;;;;;;3.47;2.38;;;;;;;5.82;100.00;100248.75;10648717;28;20039;-77
2022/11/09 06:19:22;;;;;;;5.07;2.47;;;;;;;5.85;100.00;100243.59;10642240;27;20047;-76
2022/11/09 06:24:24;;;;;;;4.97;2.70;;;;;;;5.83;100.00;100242.22;10624781;27;20031;-85
2022/11/09 06:29:26;;;;;;;4.60;2.50;;;;;;;5.74;100.00;100237.25;10620545;27;20035;-77
2022/11/09 06:34:29;;;;;;;5.68;2.45;;;;;;;5.69;100.00;100247.25;10643527;28;20047;-76
2022/11/09 06:39:31;;;;;;;4.75;2.75;;;;;;;5.66;100.00;100237.72;10611317;28;20042;-76
2022/11/09 06:44:33;;;;;;;4.68;3.03;;;;;;;5.67;100.00;100242.06;10647326;27;20040;-76
2022/11/09 06:49:35;;;;;;;6.10;3.35;;;;;;;5.66;100.00;100228.72;10616523;27;20396;-76
2022/11/09 06:54:38;;;;;;;6.13;3.22;;;;;;;5.57;100.00;100235.72;10661608;27;20344;-90
2022/11/09 06:59:40;;;;;;;4.90;3.38;;;;;;;5.51;100.00;100234.03;10643383;27;20044;-77
2022/11/09 07:04:43;;;;;;;3.28;2.40;;;;;;;5.51;100.00;100229.41;10611405;28;20049;-76
2022/11/09 07:09:45;;;;;;;5.43;3.05;;;;;;;5.47;100.00;100220.13;10614980;28;20035;-78
2022/11/09 07:14:47;;;;;;;6.57;3.47;;;;;;;5.47;100.00;100205.69;10594277;28;20048;-77
2022/11/09 07:19:49;;;;;;;7.22;4.07;;;;;;;5.43;100.00;100210.84;10617231;27;20031;-76
2022/11/09 07:24:51;;;;;;;5.30;3.42;;;;;;;5.40;100.00;100208.63;10615504;28;20043;-75
2022/11/09 07:29:54;;;;;;;5.25;3.25;;;;;;;5.38;100.00;100200.72;10631803;27;20047;-76
2022/11/09 07:34:56;;;;;;;5.97;3.47;;;;;;;5.39;100.00;100187.94;10658977;27;20043;-75
2022/11/09 07:39:58;;;;;;;6.35;3.70;;;;;;;5.45;100.00;100181.47;10658865;27;20047;-76
2022/11/09 07:45:00;;;;;;;6.25;3.25;;;;;;;5.49;100.00;100182.59;10609526;27;20032;-77
2022/11/09 07:50:03;;;;;;;5.07;2.80;;;;;;;5.47;100.00;100179.31;10611438;28;20032;-77
2022/11/09 07:55:05;;;;;;;4.38;2.63;;;;;;;5.44;100.00;100177.09;10597604;28;20044;-76
2022/11/09 08:00:08;;;;;;;5.03;2.80;;;;;;;5.39;100.00;100185.22;10627854;27;20058;-78
2022/11/09 08:05:13;;;;;;;4.13;2.70;;;;;;;5.38;100.00;100175.41;10658727;27;20039;-78
2022/11/09 08:10:15;;;;;;;6.13;3.30;;;;;;;5.31;100.00;100162.00;10662475;27;20046;-77
2022/11/09 08:15:18;;;;;;;5.20;3.08;;;;;;;5.28;100.00;100150.84;10636451;27;20474;-78
2022/11/09 08:20:20;;;;;;;5.22;2.83;;;;;;;5.25;100.00;100168.50;10617807;27;20044;-75
2022/11/09 08:25:22;;;;;;;6.55;3.33;;;;;;;5.26;100.00;100159.25;10650837;27;20047;-76
2022/11/09 08:30:25;;;;;;;5.00;3.15;;;;;;;5.27;100.00;100160.06;10620927;27;20410;-76
2022/11/09 08:35:28;;;;;;;3.72;2.50;;;;;;;5.27;100.00;100152.72;10637020;27;20047;-77
2022/11/09 08:40:31;;;;;;;6.65;2.70;;;;;;;5.28;100.00;100148.13;10639471;27;20035;-76
2022/11/09 08:45:35;;;;;;;3.70;2.80;;;;;;;5.36;100.00;100144.91;10672332;27;20054;-76
2022/11/09 08:50:37;;;;;;;3.70;2.28;;;;;;;5.36;100.00;100142.19;10656460;27;20640;-77
2022/11/09 08:55:39;;;;;;;3.85;2.55;;;;;;;5.34;100.00;100139.72;10656024;27;20055;-78
2022/11/09 09:00:42;;;;;;;3.10;2.30;;;;;;;5.34;100.00;100138.91;10638116;27;20047;-76
2022/11/09 09:05:44;;;;;;;4.32;3.03;;;;;;;5.37;100.00;100146.53;10655363;27;20058;-76
2022/11/09 09:10:46;;;;;;;5.40;3.15;;;;;;;5.38;100.00;100142.75;10631334;27;20036;-76
2022/11/09 09:15:49;;;;;;;7.93;3.25;;;;;;;5.46;100.00;100136.84;10620830;27;20542;-77
2022/11/09 09:20:51;;;;;;;6.20;3.30;;;;;;;5.49;100.00;100138.22;10594822;28;20058;-77
2022/11/09 09:25:53;;;;;;;6.55;3.97;;;;;;;5.53;100.00;100133.91;10614127;27;20418;-76
2022/11/09 09:30:59;;;;;;;7.18;3.55;;;;;;;5.57;100.00;100137.75;10646596;27;20040;-83
2022/11/09 09:36:02;;;;;;;7.20;3.63;;;;;;;5.68;100.00;100134.84;10622337;27;20401;-82
2022/11/09 09:41:05;;;;;;;9.30;4.75;;;;;;;5.75;100.00;100127.28;10606739;28;20039;-82
2022/11/09 09:46:15;;;;;;;7.50;4.13;;;;;;;5.79;100.00;100127.56;10603605;27;20040;-81
2022/11/09 09:51:26;;;;;;;8.13;4.05;;;;;;;5.87;100.00;100109.91;10627825;27;20047;-84
2022/11/09 09:56:34;;;;;;;9.77;4.80;;;;;;;5.92;100.00;100118.97;10613359;28;20048;-84
2022/11/09 10:01:38;;;;;;;7.27;4.47;;;;;;;5.99;100.00;100110.56;10591772;27;20062;-84
2022/11/09 10:07:03;;;;;;;;;;;;;;;6.05;100.00;100114.94;10644650;27;20038;-84
2022/11/09 10:12:16;;;;;;;7.93;4.18;;;;;;;6.16;100.00;100108.47;10699497;27;19926;-84
2022/11/09 10:17:21;;;;;;;8.10;4.57;;;;;;;6.29;100.00;100110.72;10670140;27;20034;-85
2022/11/09 10:22:35;;;;;;;11.48;5.22;;;;;;;6.48;100.00;100108.34;10665803;27;20449;-88
2022/11/09 10:27:55;;;;;;;10.85;5.30;;;;;;;6.58;100.00;100110.28;10638286;27;20051;-87
2022/11/09 10:33:13;;;;;;;8.38;4.75;;;;;;;6.77;100.00;100116.03;10605703;28;20049;-85
2022/11/09 10:38:28;;;;;;;8.48;4.75;;;;;;;6.83;100.00;100113.09;10620266;27;20050;-85
2022/11/09 10:43:53;;;;;;;8.23;4.75;;;;;;;6.98;100.00;100108.75;10632040;27;20035;-85
2022/11/09 10:49:19;;;;;;;10.55;4.32;;;;;;;7.04;100.00;100104.94;10639091;27;20056;-85
2022/11/09 10:54:41;;;;;;;8.75;5.30;;;;;;;7.11;100.00;100105.47;10656196;27;20039;-90
2022/11/09 11:00:03;;;;;;;7.22;4.28;;;;;;;7.19;100.00;100113.13;10664982;27;20544;-90
2022/11/09 11:05:26;;;;;;;10.27;4.38;;;;;;;7.30;100.00;100109.34;10665145;27;20050;-89
2022/11/09 11:10:47;;;;;;;8.27;3.78;;;;;;;7.42;100.00;100118.06;10632689;27;20032;-90
2022/11/09 11:16:32;;;;;;;5.95;3.90;;;;;;;7.56;100.00;100113.69;10603184;28;20047;-91
2022/11/09 11:22:22;;;;;;;8.93;3.92;;;;;;;7.71;100.00;100120.22;10606888;28;20036;-87
2022/11/09 11:27:47;;;;;;;7.72;3.60;;;;;;;7.85;100.00;100121.31;10659310;27;20043;-91
2022/11/09 11:33:17;;;;;;;8.13;3.58;;;;;;;8.01;100.00;100106.53;10630208;27;20441;-89
2022/11/09 11:38:54;;;;;;;6.18;3.50;;;;;;;8.14;100.00;100116.84;10647862;27;20070;-91
2022/11/09 11:44:35;;;;;;;6.18;3.47;;;;;;;8.31;100.00;100108.31;10631499;27;20530;-84
2022/11/09 11:49:59;;;;;;;5.45;3.50;;;;;;;8.44;100.00;100115.16;10648726;27;20070;-87
2022/11/09 11:55:42;;;;;;;5.80;3.55;;;;;;;8.53;100.00;100109.94;10611871;27;20342;-92
2022/11/09 12:01:12;;;;;;;4.18;2.78;;;;;;;8.61;100.00;100107.41;10620435;28;20052;-83
2022/11/09 12:06:47;;;;;;;7.47;3.00;;;;;;;8.66;100.00;100104.66;10615973;28;20044;-91
2022/11/09 12:12:26;;;;;;;4.55;2.90;;;;;;;8.70;100.00;100107.66;10602448;28;20402;-90
2022/11/09 12:18:03;;;;;;;5.13;3.42;;;;;;;8.74;100.00;100112.28;10611774;27;20433;-83
2022/11/09 12:23:39;;;;;;;3.73;3.33;;;;;;;8.79;100.00;100114.16;10618996;28;20047;-87
2022/11/09 12:29:18;;;;;;;6.32;2.97;;;;;;;8.84;100.00;100121.50;10618185;28;20050;-86
2022/11/09 12:34:47;;;;;;;8.68;3.63;;;;;;;8.87;100.00;100120.97;10617459;28;20432;-89
2022/11/09 12:40:23;;;;;;;3.80;2.67;;;;;;;8.90;100.00;100117.66;10623582;27;20422;-87
2022/11/09 12:45:44;;;;;;;7.65;3.45;;;;;;;8.95;100.00;100125.84;10599637;28;20217;-87
2022/11/09 12:51:06;;;;;;;6.50;3.80;;;;;;;8.96;100.00;100124.72;10585485;28;20453;-80
2022/11/09 12:56:34;;;;;;;4.80;3.03;;;;;;;8.95;100.00;100118.44;10592960;28;20036;-87
2022/11/09 13:01:59;;;;;;;6.10;2.75;;;;;;;8.92;100.00;100123.66;10626672;27;20051;-82
2022/11/09 13:07:45;;;;;;;9.57;3.83;;;;;;;8.93;100.00;100125.31;10634615;27;20051;-89
2022/11/09 13:13:09;;;;;;;6.50;3.20;;;;;;;8.92;100.00;100120.94;10644010;27;20039;-92
2022/11/09 13:18:29;;;;;;;6.05;3.17;;;;;;;8.92;100.00;100123.66;10643264;27;20508;-81
2022/11/09 13:23:51;;;;;;;4.60;3.00;;;;;;;8.91;100.00;100122.84;10647584;27;20027;-88
2022/11/09 13:29:37;;;;;;;5.80;3.72;;;;;;;8.93;100.00;100125.31;10627095;27;20043;-84
2022/11/09 13:35:00;;;;;;;6.97;3.58;;;;;;;8.90;100.00;100123.97;10649479;27;20061;-86
2022/11/09 13:40:30;;;;;;;6.20;3.42;;;;;;;8.90;100.00;100129.44;10626163;27;20050;-83
2022/11/09 13:46:02;;;;;;;8.07;3.72;;;;;;;8.88;100.00;100117.94;10653002;27;20394;-88
2022/11/09 13:51:35;;;;;;;4.97;3.33;;;;;;;8.89;100.00;100121.50;10623886;27;20039;-84
2022/11/09 13:56:57;;;;;;;4.80;3.22;;;;;;;8.88;100.00;100125.34;10648546;27;20039;-82
2022/11/09 14:02:22;;;;;;;6.13;3.80;;;;;;;8.89;100.00;100126.97;10646235;27;20039;-91
2022/11/09 14:07:43;;;;;;;6.50;4.40;;;;;;;8.89;100.00;100111.38;10628009;27;20042;-80
2022/11/09 14:13:29;;;;;;;6.40;3.67;;;;;;;8.90;100.00;100118.47;10648701;27;20421;-80
2022/11/09 14:18:56;;;;;;;5.90;3.17;;;;;;;8.92;100.00;100124.50;10635676;27;20047;-83
2022/11/09 14:24:20;;;;;;;3.97;2.97;;;;;;;8.93;100.00;100126.13;10637996;27;20035;-83
2022/11/09 14:29:49;;;;;;;7.50;3.47;;;;;;;8.92;100.00;100127.22;10646787;28;20549;-77
2022/11/09 14:35:10;;;;;;;6.78;2.80;;;;;;;8.94;100.00;100129.69;10645738;27;20051;-75
2022/11/09 14:40:31;;;;;;;7.15;3.70;;;;;;;8.97;100.00;100137.31;10653771;27;20034;-75
2022/11/09 14:46:00;;;;;;;6.82;3.63;;;;;;;8.97;100.00;100124.44;10627292;28;20490;-75
2022/11/09 14:51:37;;;;;;;5.30;3.15;;;;;;;8.99;100.00;100132.38;10636156;28;20528;-75
2022/11/09 14:56:59;;;;;;;4.85;2.60;;;;;;;8.97;100.00;100124.44;10643200;27;20408;-79
2022/11/09 15:02:21;;;;;;;4.53;3.00;;;;;;;8.95;100.00;100132.13;10642549;27;20040;-82
2022/11/09 15:07:46;;;;;;;3.55;2.38;;;;;;;8.95;100.00;100129.38;10631387;27;20378;-79
2022/11/09 15:13:07;;;;;;;4.85;2.83;;;;;;;8.95;100.00;100125.84;10601953;28;20044;-80
2022/11/09 15:18:31;;;;;;;7.38;2.72;;;;;;;8.97;100.00;100123.63;10628899;27;20043;-80
2022/11/09 15:24:06;;;;;;;4.20;2.80;;;;;;;8.96;100.00;100127.47;10634704;27;20501;-84
2022/11/09 15:29:38;;;;;;;4.63;2.58;;;;;;;8.93;100.00;100130.78;10658180;27;20043;-83
2022/11/09 15:34:58;;;;;;;3.88;2.95;;;;;;;8.91;100.00;100125.59;10624867;27;20043;-85
2022/11/09 15:40:22;;;;;;;4.43;2.85;;;;;;;8.89;100.00;100129.72;10624426;27;20043;-90
2022/11/09 15:45:50;;;;;;;7.18;2.85;;;;;;;8.91;100.00;100128.31;10587985;27;20046;-90
2022/11/09 15:51:20;;;;;;;6.07;2.92;;;;;;;8.90;100.00;100131.34;10658382;27;20165;-84
2022/11/09 15:56:42;;;;;;;4.50;3.10;;;;;;;8.86;100.00;100124.81;10637488;27;20052;-88
2022/11/09 16:02:03;;;;;;;7.30;3.45;;;;;;;8.85;100.00;100125.88;10623916;27;20047;-81
2022/11/09 16:07:24;;;;;;;6.15;3.88;;;;;;;8.84;100.00;100133.28;10637411;27;20031;-81
2022/11/09 16:12:45;;;;;;;5.50;3.53;;;;;;;8.82;100.00;100126.44;10635713;27;20059;-81
2022/11/09 16:18:10;;;;;;;6.47;3.45;;;;;;;8.82;100.00;100129.19;10611293;27;20057;-80
2022/11/09 16:23:31;;;;;;;9.70;4.18;;;;;;;8.82;100.00;100119.06;10657444;27;20047;-80
2022/11/09 16:28:53;;;;;;;7.30;4.20;;;;;;;8.80;100.00;100118.53;10627299;27;20129;-80
2022/11/09 16:34:14;;;;;;;7.25;4.05;;;;;;;8.82;100.00;100126.44;10602077;27;20414;-81
2022/11/09 16:39:36;;;;;;;8.63;4.20;;;;;;;8.85;100.00;100139.56;10581907;28;20669;-81
2022/11/09 16:45:01;;;;;;;6.75;4.10;;;;;;;8.86;100.00;100141.22;10596349;28;20440;-80
2022/11/09 16:50:22;;;;;;;7.30;4.55;;;;;;;8.84;100.00;100143.41;10614586;27;20055;-81
2022/11/09 16:55:43;;;;;;;6.72;4.20;;;;;;;8.84;100.00;100138.75;10639658;27;20066;-80
2022/11/09 17:01:04;;;;;;;6.75;4.43;;;;;;;8.83;100.00;100130.81;10632474;27;20039;-81
2022/11/09 17:06:25;;;;;;;7.00;3.95;;;;;;;8.82;100.00;100137.41;10580697;28;20062;-81
2022/11/09 17:11:45;;;;;;;6.05;4.50;;;;;;;8.82;100.00;100137.41;10612523;28;20035;-81
2022/11/09 17:17:06;;;;;;;8.23;5.10;;;;;;;8.77;100.00;100141.81;10642736;27;20047;-81
2022/11/09 17:22:29;;;;;;;6.95;4.40;;;;;;;8.76;100.00;100145.63;10653905;27;20031;-81
2022/11/09 17:27:50;;;;;;;7.32;4.75;;;;;;;8.73;100.00;100142.66;10657929;27;20042;-81
2022/11/09 17:33:11;;;;;;;7.53;4.93;;;;;;;8.69;100.00;100131.47;10679692;27;20034;-81
2022/11/09 17:38:32;;;;;;;8.10;4.75;;;;;;;8.68;100.00;100138.03;10638468;27;20039;-80
2022/11/09 17:43:53;;;;;;;9.82;5.60;;;;;;;8.68;100.00;100150.88;10612474;28;20044;-80
2022/11/09 17:49:14;;;;;;;8.48;4.72;;;;;;;8.67;100.00;100139.09;10635872;27;20034;-79
2022/11/09 17:54:35;;;;;;;7.38;4.82;;;;;;;8.69;100.00;100141.59;10637928;27;20047;-80
2022/11/09 17:59:55;;;;;;;9.02;5.20;;;;;;;8.67;100.00;100150.03;10653833;27;20066;-80
2022/11/09 18:05:16;;;;;;;11.88;5.40;;;;;;;8.69;100.00;100150.59;10649610;27;20055;-80
2022/11/09 18:10:38;;;;;;;8.48;5.63;;;;;;;8.68;100.00;100161.81;10643723;27;20039;-79
2022/11/09 18:16:04;;;;;;;13.68;5.68;;;;;;;8.68;100.00;100150.88;10625574;28;20043;-86
2022/11/09 18:21:27;;;;;;;9.40;4.80;;;;;;;8.68;100.00;100161.81;10632120;28;20035;-87
2022/11/09 18:26:48;;;;;;;8.27;4.47;;;;;;;8.69;100.00;100164.28;10658393;27;20137;-83
2022/11/09 18:32:09;;;;;;;7.30;4.95;;;;;;;8.67;100.00;100160.97;10649965;28;20031;-83
2022/11/09 18:37:39;;;;;;;8.10;5.50;;;;;;;8.70;100.00;100167.84;10642812;27;20046;-83
2022/11/09 18:43:00;;;;;;;9.90;5.38;;;;;;;8.68;100.00;100176.31;10641504;27;20069;-78
2022/11/09 18:48:24;;;;;;;7.30;4.85;;;;;;;8.71;100.00;100175.75;10659326;27;20524;-80
2022/11/09 18:53:46;;;;;;;10.15;5.32;;;;;;;8.72;100.00;100174.66;10629942;27;20054;-80
2022/11/09 18:59:10;;;;;;;8.35;5.05;;;;;;;8.71;100.00;100175.75;10635280;27;20047;-80
2022/11/09 19:04:31;;;;;;;8.05;5.47;;;;;;;8.72;100.00;100182.03;10631783;27;20039;-80
2022/11/09 19:09:51;;;;;;;12.30;5.75;;;;;;;8.71;100.00;100183.16;10654088;27;20171;-82
2022/11/09 19:15:12;;;;;;;11.13;5.75;;;;;;;8.70;100.00;100176.03;10662082;27;20047;-78
2022/11/09 19:20:37;;;;;;;9.32;5.82;;;;;;;8.71;100.00;100191.34;10648978;27;20054;-78
2022/11/09 19:26:00;;;;;;;7.60;5.63;;;;;;;8.73;100.00;100194.63;10655087;27;20059;-78
2022/11/09 19:31:22;;;;;;;9.43;5.30;;;;;;;8.73;100.00;100194.63;10654114;27;20050;-78
2022/11/09 19:36:44;;;;;;;11.45;5.55;;;;;;;8.73;100.00;100180.94;10651002;27;20059;-77
2022/11/09 19:42:06;;;;;;;10.80;6.63;;;;;;;8.73;100.00;100179.03;10639364;27;20039;-78
2022/11/09 19:47:27;;;;;;;14.77;6.70;;;;;;;8.72;100.00;100182.88;10627141;27;20505;-78
2022/11/09 19:52:48;;;;;;;10.00;5.78;;;;;;;8.72;100.00;100190.25;10654837;27;20529;-77
2022/11/09 19:58:09;;;;;;;9.27;6.20;;;;;;;8.73;100.00;100187.25;10651243;27;20051;-78
2022/11/09 20:03:30;;;;;;;14.27;7.10;;;;;;;8.73;100.00;100187.25;10622629;27;20039;-80
2022/11/09 20:08:52;;;;;;;10.57;6.03;;;;;;;8.76;100.00;100185.84;10628825;27;20047;-76
2022/11/09 20:14:13;;;;;;;14.20;7.03;;;;;;;8.74;100.00;100185.31;10664118;27;20035;-78
2022/11/09 20:19:34;;;;;;;14.25;7.47;;;;;;;8.74;100.00;100193.53;10627144;27;20043;-79
2022/11/09 20:24:54;;;;;;;11.75;6.97;;;;;;;8.74;100.00;100204.47;10654012;27;20171;-78
2022/11/09 20:30:16;;;;;;;12.73;6.57;;;;;;;8.75;100.00;100206.09;10652136;27;20050;-78
2022/11/09 20:35:36;;;;;;;10.68;6.38;;;;;;;8.75;100.00;100204.19;10633449;27;20043;-80
2022/11/09 20:41:01;;;;;;;11.00;6.07;;;;;;;8.75;100.00;100212.38;10647535;27;20051;-79
2022/11/09 20:46:22;;;;;;;11.88;6.93;;;;;;;8.77;100.00;100209.38;10626069;27;20043;-79
2022/11/09 20:51:43;;;;;;;9.68;5.78;;;;;;;8.77;100.00;100204.72;10632863;27;20054;-80
2022/11/09 20:57:04;;;;;;;12.73;6.55;;;;;;;8.78;100.00;100216.47;10633728;27;20563;-78
2022/11/09 21:02:25;;;;;;;13.23;6.22;;;;;;;8.80;100.00;100208.81;10627601;27;20047;-78
2022/11/09 21:07:46;;;;;;;10.38;6.20;;;;;;;8.78;100.00;100213.75;10653289;27;20039;-78
2022/11/09 21:13:07;;;;;;;11.38;5.72;;;;;;;8.77;100.00;100215.66;10647923;27;20043;-78
2022/11/09 21:18:27;;;;;;;9.43;5.93;;;;;;;8.80;100.00;100216.19;10652805;27;20051;-79
2022/11/09 21:35:07;;;;;;;8.77;5.78;;;;;;;8.83;100.00;100212.91;10642069;27;20039;-76
2022/11/09 21:40:28;;;;;;;16.05;6.97;;;;;;;8.82;100.00;100214.00;10634654;27;20409;-76
2022/11/09 21:45:49;;;;;;;13.60;6.22;;;;;;;8.82;100.00;100214.00;10648770;27;20043;-77
2022/11/09 21:51:10;;;;;;;9.80;5.68;;;;;;;8.82;100.00;100216.72;10648171;27;20043;-75
2022/11/09 21:56:31;;;;;;;9.20;5.70;;;;;;;8.82;100.00;100211.25;10647322;27;20047;-88
2022/11/09 22:01:52;;;;;;;8.80;6.15;;;;;;;8.81;100.00;100210.44;10606437;28;20574;-80
2022/11/09 22:07:13;;;;;;;10.38;6.50;;;;;;;8.80;100.00;100213.47;10608211;28;20397;-76
2022/11/09 22:20:53;;;;;;;10.65;5.43;;;;;;;8.77;100.00;100209.38;10613671;27;20055;-77
2022/11/09 22:23:58;;;;;;;10.50;5.75;;;;;;;8.80;100.00;100213.47;10608112;28;20505;-77
2022/11/09 22:29:18;;;;;;;9.10;6.13;;;;;;;8.77;100.00;100207.44;10602332;28;20047;-75
2022/11/09 22:34:39;;;;;;;10.52;5.90;;;;;;;8.76;100.00;100208.56;10622314;28;20040;-76
2022/11/09 22:39:59;;;;;;;11.95;6.45;;;;;;;8.77;100.00;100212.94;10607311;28;20064;-76
2022/11/09 22:45:20;;;;;;;9.48;5.15;;;;;;;8.81;100.00;100215.09;10607143;28;20047;-77
2022/11/09 22:50:40;;;;;;;8.93;5.78;;;;;;;8.78;100.00;100205.53;10603267;27;20047;-76
2022/11/09 22:56:02;;;;;;;10.75;6.03;;;;;;;8.75;100.00;100200.63;10596799;28;20387;-75
2022/11/09 23:01:23;;;;;;;7.88;4.10;;;;;;;8.79;100.00;100206.34;10637871;27;20070;-77
2022/11/09 23:06:44;;;;;;;13.68;6.20;;;;;;;8.75;100.00;100198.72;10656927;27;20050;-77
2022/11/09 23:12:04;;;;;;;10.50;5.50;;;;;;;8.75;100.00;100190.50;10653507;27;20697;-76
2022/11/09 23:23:06;;;;;;;11.18;5.78;;;;;;;8.72;100.00;100195.72;10658804;27;20509;-79
2022/11/09 23:28:28;;;;;;;10.35;5.80;;;;;;;8.72;100.00;100196.53;10638312;27;20042;-82
2022/11/09 23:33:50;;;;;;;10.55;5.88;;;;;;;8.70;100.00;100193.28;10639965;27;20035;-83
2022/11/09 23:39:11;;;;;;;10.52;5.88;;;;;;;8.66;100.00;100186.69;10642806;27;20043;-83
2022/11/09 23:44:31;;;;;;;11.27;6.63;;;;;;;8.65;100.00;100182.31;10644910;27;20406;-84
2022/11/09 23:49:52;;;;;;;11.02;5.90;;;;;;;8.67;100.00;100176.56;10646488;27;20039;-82
2022/11/09 23:55:14;;;;;;;8.63;5.25;;;;;;;8.67;100.00;100177.41;10654508;27;20043;-82
